SBGR/GRU METAR and TAF weather

Enter ICAO airport designator
Station Type Date Time Source
SBGR METAR 2019/10/23 20:00 UTC NOAA

SBGR 232000Z 13008KT 9999 OVC021 21/17 Q1017


Station Type Date Time Source
SBGR Decoded METAR 2019/10/23 20:00 UTC NOAA

Guarulhos Civ / Mil , Brazil (SBGR) 23-26S 046-28W
Oct 23, 2019 - 04:00 PM EDT / 2019.10.23 2000 UTC
Wind: from the SE (130 degrees) at 9 MPH (8 KT):0
Visibility: greater than 7 mile(s):0
Sky conditions: overcast
Temperature: 69 F (21 C)
Dew Point: 62 F (17 C)
Relative Humidity: 77%
Pressure (altimeter): 30.03 in. Hg (1017 hPa)
ob: SBGR 232000Z 13008KT 9999 OVC021 21/17 Q1017
cycle: 20

Station Type Date Time Source
SBGR TAF 2019/10/23 18:48 UTC NOAA

TAF SBGR 231500Z 2318/2424 14010KT 9999 BKN040 TN16/2409Z TX28/2417Z
BECMG 2320/2322 10005KT BKN012
BECMG 2409/2411 06005KT CAVOK
BECMG 2413/2415 34005KT 9999 SCT040 PROB30 2418/2421 17005KT 8000 SHRA BKN035 FEW045TCU
BECMG 2421/2423 12005KT BKN012
RMK PGH

Example: see airport list